createdAt,value
2019-03-06T10:26:22.808Z,42.80
2019-03-06T10:27:22.759Z,43.10
2019-03-06T10:28:27.825Z,42.80
2019-03-06T10:29:23.666Z,42.60
2019-03-06T10:30:22.618Z,42.72
2019-03-06T10:31:22.569Z,42.32
2019-03-06T10:32:22.537Z,42.82
2019-03-06T10:33:22.474Z,42.99
2019-03-06T10:34:22.418Z,43.10
2019-03-06T10:35:22.366Z,42.69
2019-03-06T10:36:22.318Z,43.10
2019-03-06T10:37:22.258Z,42.90
2019-03-06T10:38:22.180Z,42.19
2019-03-06T10:39:22.111Z,42.99
2019-03-06T10:40:22.041Z,42.80
2019-03-06T10:41:21.983Z,42.99
2019-03-06T10:42:21.965Z,42.99
2019-03-06T10:43:23.693Z,42.99
2019-03-06T10:44:28.801Z,42.69
2019-03-06T10:45:22.717Z,42.60
2019-03-06T10:46:21.651Z,42.18
2019-03-06T10:47:21.612Z,42.80
2019-03-06T10:48:21.519Z,42.99
2019-03-06T10:49:21.451Z,42.60
2019-03-06T10:50:26.809Z,42.61
2019-03-06T10:51:22.321Z,42.61
2019-03-06T10:52:21.247Z,43.52
2019-03-06T10:53:21.185Z,43.22
2019-03-06T10:54:21.119Z,43.42
2019-03-06T10:55:21.062Z,42.60
2019-03-06T10:56:20.987Z,42.49
2019-03-06T10:57:20.959Z,42.49
2019-03-06T10:58:20.869Z,42.69
2019-03-06T10:59:20.781Z,42.49
2019-03-06T11:00:20.706Z,42.49
2019-03-06T11:01:20.636Z,42.69
2019-03-06T11:02:20.573Z,42.60
2019-03-06T11:03:20.514Z,42.69
2019-03-06T11:04:20.436Z,42.60
2019-03-06T11:05:20.367Z,42.69
2019-03-06T11:06:20.297Z,42.47
2019-03-06T11:07:20.225Z,42.77
2019-03-06T11:08:20.169Z,42.47
2019-03-06T11:09:20.089Z,42.69
2019-03-06T11:10:23.964Z,42.60
2019-03-06T11:11:20.945Z,43.30
2019-03-06T11:12:19.871Z,43.10
2019-03-06T11:13:19.821Z,42.49
2019-03-06T11:14:19.742Z,42.49
2019-03-06T11:15:19.659Z,42.69
2019-03-06T11:16:19.588Z,42.40
2019-03-06T11:17:19.526Z,42.47
2019-03-06T11:18:19.456Z,43.38
2019-03-06T11:19:19.366Z,42.57
2019-03-06T11:20:19.293Z,42.49
2019-03-06T11:21:19.222Z,43.40
2019-03-06T11:22:19.147Z,43.50
2019-03-06T11:23:19.082Z,43.42
2019-03-06T11:24:19.001Z,43.92
2019-03-06T11:25:18.929Z,44.50
2019-03-06T11:26:18.853Z,44.32
2019-03-06T11:27:18.798Z,43.92
2019-03-06T11:28:18.722Z,44.52
2019-03-06T11:29:19.495Z,43.92
2019-03-06T11:30:18.570Z,44.32
2019-03-06T11:31:18.501Z,44.52
2019-03-06T11:32:18.421Z,44.92
2019-03-06T11:33:18.359Z,44.92
2019-03-06T11:34:18.276Z,44.92
2019-03-06T11:35:18.209Z,43.82
2019-03-06T11:36:18.130Z,44.22
2019-03-06T11:37:18.057Z,44.72
2019-03-06T11:38:17.996Z,44.32
2019-03-06T11:39:17.894Z,44.04
2019-03-06T11:40:17.815Z,43.94
2019-03-06T11:41:17.749Z,45.12
2019-03-06T11:42:17.666Z,44.14
2019-03-06T11:43:17.592Z,44.24
2019-03-06T11:44:17.528Z,43.94
2019-03-06T11:45:17.453Z,44.02
2019-03-06T11:46:17.374Z,43.94
2019-03-06T11:47:17.294Z,44.12
2019-03-06T11:48:17.220Z,44.14
2019-03-06T11:49:17.161Z,43.94
2019-03-06T11:50:17.089Z,44.04
2019-03-06T11:51:17.003Z,45.12
2019-03-06T11:52:16.929Z,44.24
2019-03-06T11:53:16.851Z,44.24
2019-03-06T11:54:16.881Z,44.14
2019-03-06T11:55:16.707Z,44.95
2019-03-06T11:56:16.636Z,44.64
2019-03-06T11:57:16.563Z,44.64
2019-03-06T11:58:16.489Z,44.32
2019-03-06T11:59:16.425Z,44.34
2019-03-06T12:00:16.345Z,44.74
2019-03-06T12:01:16.271Z,44.44
2019-03-06T12:02:16.958Z,44.74
2019-03-06T12:03:16.119Z,44.22
2019-03-06T12:04:16.069Z,44.22
2019-03-06T12:05:15.970Z,44.92
2019-03-06T12:06:15.897Z,45.42
2019-03-06T12:07:15.873Z,44.44
2019-03-06T12:08:15.758Z,44.82
2019-03-06T12:09:15.695Z,44.92
2019-03-06T12:10:15.620Z,44.64
2019-03-06T12:11:15.541Z,45.25
2019-03-06T12:12:15.466Z,44.74
2019-03-06T12:13:15.391Z,45.14
2019-03-06T12:14:15.331Z,45.45
2019-03-06T12:15:15.247Z,44.84
2019-03-06T12:16:15.165Z,44.95
2019-03-06T12:17:15.100Z,44.34
2019-03-06T12:18:15.013Z,44.34
2019-03-06T12:19:14.955Z,44.64
2019-03-06T12:20:14.862Z,44.84
2019-03-06T12:21:14.789Z,43.94
2019-03-06T12:22:14.723Z,44.24
2019-03-06T12:23:14.639Z,44.95
2019-03-06T12:24:14.574Z,44.95
2019-03-06T12:25:14.491Z,44.84
2019-03-06T12:26:14.424Z,44.74
2019-03-06T12:27:14.351Z,44.64
2019-03-06T12:28:14.279Z,43.64
2019-03-06T12:29:14.225Z,42.44
2019-03-06T12:30:14.144Z,43.14
2019-03-06T12:31:14.083Z,42.44
2019-03-06T12:32:14.017Z,43.34
2019-03-06T12:33:13.942Z,42.63
2019-03-06T12:34:13.867Z,42.83
2019-03-06T12:35:13.824Z,43.64
2019-03-06T12:36:13.738Z,44.44
2019-03-06T12:37:13.680Z,44.34
2019-03-06T12:38:13.664Z,44.24
2019-03-06T12:39:13.550Z,44.54
2019-03-06T12:40:14.853Z,43.94
2019-03-06T12:41:13.398Z,44.14
2019-03-06T12:42:14.567Z,44.44
2019-03-06T12:43:13.254Z,44.44
